Saltillo, Tennessee
Current Conditions -  °F | °C
As of 3:15 AM on Wednesday 28 Jan 2015 (Local Time) from KSNH Reporting Station
NA  
Wind Chill: 25°   Ceiling: NA
Heat Index: 25°   Visibility: 10mi
Dew Point: 25°   Wind: 0mph
Humidity: 100%   Direction: NA
Pressure: 30.25"   Gusts: NA
Location:  35.38°N, 88.21°W
Report Text: KSNH 280915Z AUTO 00000KT 10SM M04/M04 A3025 RMK
Loading
Personal Weather Stations






























Interactive Weather Map New forecast layout! Learn more

10-Day Weather Forecast

Advertisements
Track Severe Weather on mobile